Time;durP1;ratioP1;P1;durP2;ratioP2;P2;SDS_P1;SDS_P2;PMS_P1;PMS_P2;Temp;Humidity;BMP_temperature;BMP_pressure;BME280_temperature;BME280_humidity;BME280_pressure;Samples;Min_cycle;Max_cycle;Signal;HPM_P1;HPM_P2
2021/08/07 00:03:16;;;;;;;1.60;0.50;;;17.00;99.90;;;;;;20663875;28;20306;-81
2021/08/07 00:13:17;;;;;;;2.70;0.45;;;17.10;99.90;;;;;;20655229;28;20061;-82
2021/08/07 00:23:19;;;;;;;2.75;0.40;;;17.10;99.90;;;;;;20630733;28;20061;-82
2021/08/07 00:33:20;;;;;;;3.45;0.63;;;17.00;99.90;;;;;;20644362;28;20050;-82
2021/08/07 00:43:21;;;;;;;3.67;0.82;;;16.90;99.90;;;;;;20631587;28;20745;-82
2021/08/07 00:53:22;;;;;;;1.90;0.47;;;16.90;99.90;;;;;;20630477;28;20395;-81
2021/08/07 01:03:39;;;;;;;2.10;0.50;;;16.80;99.90;;;;;;20638300;28;20479;-83
2021/08/07 01:13:50;;;;;;;4.25;0.63;;;16.80;99.90;;;;;;20642660;28;20042;-82
2021/08/07 01:24:08;;;;;;;4.50;0.80;;;16.50;99.90;;;;;;20659973;28;20046;-81
2021/08/07 01:34:10;;;;;;;2.33;1.02;;;16.50;99.90;;;;;;20653765;28;20487;-81
2021/08/07 01:44:11;;;;;;;1.65;0.43;;;16.40;99.90;;;;;;20635040;28;20533;-82
2021/08/07 01:54:15;;;;;;;5.32;1.27;;;16.30;99.90;;;;;;20622150;28;20515;-82
2021/08/07 02:04:19;;;;;;;2.92;0.98;;;16.20;99.90;;;;;;20652187;28;20565;-81
2021/08/07 02:14:22;;;;;;;1.70;0.60;;;16.20;99.90;;;;;;20660891;28;20129;-82
2021/08/07 02:24:27;;;;;;;4.03;0.80;;;15.80;99.90;;;;;;20646521;28;20513;-82
2021/08/07 02:34:29;;;;;;;5.07;1.02;;;16.00;99.90;;;;;;20640603;28;20050;-81
2021/08/07 02:44:31;;;;;;;4.93;1.00;;;15.90;99.90;;;;;;20637957;28;20084;-81
2021/08/07 02:54:34;;;;;;;2.28;0.85;;;15.90;99.90;;;;;;20635301;28;20496;-81
2021/08/07 03:04:35;;;;;;;1.75;1.15;;;15.70;99.90;;;;;;20623516;28;20520;-81
2021/08/07 03:14:37;;;;;;;4.63;1.13;;;15.80;99.90;;;;;;20620889;28;20525;-81
2021/08/07 03:24:39;;;;;;;2.30;0.77;;;15.70;99.90;;;;;;20636039;28;20065;-80
2021/08/07 03:34:40;;;;;;;2.83;0.90;;;15.80;99.90;;;;;;20618816;28;20046;-81
2021/08/07 03:44:41;;;;;;;3.97;1.10;;;15.80;99.90;;;;;;20641459;28;20145;-81
2021/08/07 03:54:42;;;;;;;3.28;1.13;;;15.90;99.90;;;;;;20635784;28;20054;-82
2021/08/07 04:04:43;;;;;;;3.00;1.63;;;15.90;99.90;;;;;;20645492;28;20042;-81
2021/08/07 04:14:45;;;;;;;4.43;1.23;;;16.10;99.90;;;;;;20655813;28;20085;-82
2021/08/07 04:24:46;;;;;;;3.03;1.20;;;15.90;99.90;;;;;;20657658;28;20054;-81
2021/08/07 04:34:47;;;;;;;5.78;1.25;;;16.00;99.90;;;;;;20612554;28;20100;-81
2021/08/07 04:44:48;;;;;;;3.42;0.82;;;16.00;99.90;;;;;;20613359;28;20125;-82
2021/08/07 04:54:49;;;;;;;3.83;1.25;;;15.90;99.90;;;;;;20623198;28;20043;-81
2021/08/07 05:04:51;;;;;;;3.63;0.98;;;15.70;99.90;;;;;;20606280;28;20043;-82
2021/08/07 05:14:52;;;;;;;4.78;1.20;;;15.80;99.90;;;;;;20638337;28;20043;-82
2021/08/07 05:24:53;;;;;;;2.08;0.82;;;15.80;99.90;;;;;;20608257;28;20043;-83
2021/08/07 05:34:54;;;;;;;1.75;0.88;;;16.00;99.90;;;;;;20647270;28;20104;-82
2021/08/07 05:44:56;;;;;;;3.03;1.20;;;16.30;99.90;;;;;;20631639;28;20153;-81
2021/08/07 05:54:57;;;;;;;8.27;1.30;;;16.40;99.90;;;;;;20620993;28;20038;-82
2021/08/07 06:04:59;;;;;;;2.90;1.25;;;16.70;99.90;;;;;;20653161;28;20046;-82
2021/08/07 06:15:00;;;;;;;1.88;0.63;;;16.80;99.90;;;;;;20641963;28;20081;-81
2021/08/07 06:25:04;;;;;;;3.17;0.60;;;17.00;99.90;;;;;;20619972;28;20046;-81
2021/08/07 06:35:06;;;;;;;3.33;0.50;;;17.10;99.90;;;;;;20635401;28;20056;-82
2021/08/07 06:45:08;;;;;;;2.90;0.52;;;17.20;99.90;;;;;;20607271;28;20038;-82
2021/08/07 06:55:10;;;;;;;2.45;0.40;;;17.10;99.90;;;;;;20626985;28;20113;-81
2021/08/07 07:05:11;;;;;;;1.70;0.50;;;17.10;99.90;;;;;;20603432;28;20058;-81
2021/08/07 07:15:13;;;;;;;1.40;0.30;;;17.30;99.90;;;;;;20636818;23;20085;-81
2021/08/07 07:25:17;;;;;;;0.57;0.22;;;17.60;99.90;;;;;;20531604;28;20497;-82
2021/08/07 07:35:18;;;;;;;2.25;0.40;;;17.60;99.90;;;;;;20536223;28;20058;-81
2021/08/07 07:45:19;;;;;;;1.50;0.50;;;17.60;99.90;;;;;;20552851;28;20133;-81
2021/08/07 07:55:21;;;;;;;2.33;0.50;;;17.70;99.90;;;;;;20570613;28;20046;-81
2021/08/07 08:05:22;;;;;;;2.28;0.45;;;17.80;99.90;;;;;;20568793;28;20105;-81
2021/08/07 08:15:23;;;;;;;8.45;0.98;;;17.80;99.90;;;;;;20575468;28;20105;-81
2021/08/07 08:25:25;;;;;;;1.15;0.40;;;17.90;99.90;;;;;;20593914;28;20055;-81
2021/08/07 08:35:26;;;;;;;2.58;0.43;;;18.20;99.90;;;;;;20566695;28;20035;-82
2021/08/07 08:45:28;;;;;;;1.67;0.50;;;18.50;99.90;;;;;;20523958;28;20046;-83
2021/08/07 08:55:29;;;;;;;1.88;0.50;;;18.50;99.90;;;;;;20545465;28;20085;-84
2021/08/07 09:05:31;;;;;;;1.20;0.40;;;18.50;99.90;;;;;;20569257;28;20054;-84
2021/08/07 09:15:37;;;;;;;1.65;0.73;;;18.90;99.90;;;;;;20483448;28;20166;-84
2021/08/07 09:25:41;;;;;;;3.40;1.33;;;19.60;99.90;;;;;;20487300;28;20882;-84
2021/08/07 09:35:45;;;;;;;0.65;0.22;;;20.30;99.90;;;;;;20476481;28;20122;-81
2021/08/07 09:46:02;;;;;;;0.70;0.35;;;20.30;99.90;;;;;;20477192;28;20031;-83
2021/08/07 09:56:06;;;;;;;1.60;0.70;;;20.60;99.90;;;;;;20479397;28;20073;-83
2021/08/07 10:06:22;;;;;;;2.58;1.15;;;21.00;99.90;;;;;;20495019;28;20027;-79
2021/08/07 10:16:24;;;;;;;1.85;0.60;;;21.10;99.90;;;;;;20561492;28;20061;-80
2021/08/07 10:26:26;;;;;;;1.23;0.30;;;20.60;99.90;;;;;;20560343;28;20043;-78
2021/08/07 10:36:28;;;;;;;1.67;0.70;;;19.80;99.90;;;;;;20626029;23;20089;-80
2021/08/07 10:46:38;;;;;;;2.50;1.40;;;20.00;99.90;;;;;;20673666;28;20041;-81
2021/08/07 10:56:43;;;;;;;4.78;1.40;;;20.30;99.90;;;;;;20671863;28;20044;-83
2021/08/07 11:06:44;;;;;;;2.67;0.70;;;20.40;99.90;;;;;;20690637;28;20057;-82
2021/08/07 11:17:03;;;;;;;1.10;0.50;;;20.70;99.90;;;;;;20646669;28;20026;-81
2021/08/07 11:27:05;;;;;;;3.57;1.63;;;21.10;99.90;;;;;;20675845;28;20081;-85
2021/08/07 11:37:15;;;;;;;3.50;0.60;;;21.20;99.90;;;;;;20732340;28;20068;-86
2021/08/07 11:47:16;;;;;;;2.03;0.40;;;22.20;99.90;;;;;;20759826;28;20547;-82
2021/08/07 11:57:25;;;;;;;3.47;1.27;;;23.10;99.90;;;;;;20749438;28;20049;-83
2021/08/07 12:07:26;;;;;;;2.97;0.55;;;23.80;99.90;;;;;;20739512;28;20041;-82
2021/08/07 12:17:27;;;;;;;1.65;0.50;;;23.50;99.90;;;;;;20748575;28;20048;-82
2021/08/07 12:27:29;;;;;;;1.38;0.52;;;23.10;99.90;;;;;;20789677;28;20129;-81
2021/08/07 12:37:35;;;;;;;7.70;1.30;;;23.50;99.90;;;;;;20804854;28;20065;-82
2021/08/07 12:47:37;;;;;;;0.50;0.20;;;22.70;99.90;;;;;;20820777;28;20053;-81
2021/08/07 12:57:40;;;;;;;2.53;0.40;;;23.30;99.90;;;;;;20847235;28;20049;-81
2021/08/07 13:07:41;;;;;;;0.90;0.38;;;22.90;99.90;;;;;;20778485;28;20107;-81
2021/08/07 13:17:47;;;;;;;0.82;0.28;;;22.30;99.90;;;;;;20801450;28;20045;-82
2021/08/07 13:27:48;;;;;;;1.27;0.50;;;22.20;99.90;;;;;;20804282;28;20099;-81
2021/08/07 13:37:50;;;;;;;1.00;0.40;;;22.00;99.90;;;;;;20776075;28;20042;-81
2021/08/07 13:47:51;;;;;;;0.85;0.30;;;22.20;99.90;;;;;;20793343;28;20071;-81
2021/08/07 13:57:52;;;;;;;2.53;0.22;;;22.20;99.90;;;;;;20781521;28;20037;-81
2021/08/07 14:07:53;;;;;;;2.28;0.30;;;23.00;99.90;;;;;;20799662;28;20040;-81
2021/08/07 14:17:55;;;;;;;0.88;0.38;;;22.80;99.90;;;;;;20761420;28;20045;-81
2021/08/07 14:27:57;;;;;;;1.33;0.22;;;23.10;99.90;;;;;;20789557;28;20095;-81
2021/08/07 14:37:58;;;;;;;0.47;0.45;;;22.80;99.90;;;;;;20760927;28;20054;-82
2021/08/07 14:48:01;;;;;;;0.82;0.40;;;22.90;99.90;;;;;;20800622;28;20069;-81
2021/08/07 14:58:03;;;;;;;1.67;0.30;;;22.50;99.90;;;;;;20781703;28;20049;-81
2021/08/07 15:08:04;;;;;;;0.77;0.30;;;22.20;99.90;;;;;;20790963;28;20045;-81
2021/08/07 15:18:05;;;;;;;0.95;0.20;;;21.90;99.90;;;;;;20810300;28;20049;-81
2021/08/07 15:28:07;;;;;;;1.30;0.20;;;21.60;99.90;;;;;;20776578;28;20037;-81
2021/08/07 15:38:08;;;;;;;1.13;0.30;;;21.40;99.90;;;;;;20748509;28;20064;-80
2021/08/07 15:48:09;;;;;;;2.45;0.30;;;21.20;99.90;;;;;;20691399;28;20041;-80
2021/08/07 15:58:10;;;;;;;1.65;0.60;;;20.30;99.90;;;;;;20706954;28;20026;-80
2021/08/07 16:08:11;;;;;;;0.98;0.30;;;20.00;99.90;;;;;;20739815;28;20110;-81
2021/08/07 16:18:13;;;;;;;1.75;0.20;;;19.80;99.90;;;;;;20723268;28;20038;-80
2021/08/07 16:28:14;;;;;;;1.73;0.52;;;19.30;99.90;;;;;;20698945;28;20042;-80
2021/08/07 16:38:15;;;;;;;0.65;0.32;;;19.00;99.90;;;;;;20730294;28;20121;-81
2021/08/07 16:48:16;;;;;;;2.47;0.73;;;18.80;99.90;;;;;;20712888;28;20073;-81
2021/08/07 16:58:17;;;;;;;2.60;0.38;;;18.90;99.90;;;;;;20713488;28;20064;-81
2021/08/07 17:08:18;;;;;;;0.90;0.30;;;19.00;99.90;;;;;;20702971;28;20797;-85
2021/08/07 17:18:20;;;;;;;0.55;0.22;;;18.50;99.90;;;;;;20714364;28;20898;-84
2021/08/07 17:28:21;;;;;;;0.88;0.32;;;16.70;99.90;;;;;;20686266;28;20050;-83
2021/08/07 17:38:22;;;;;;;0.82;0.38;;;16.60;99.90;;;;;;20747850;28;20423;-84
2021/08/07 17:48:23;;;;;;;2.97;0.50;;;16.60;99.90;;;;;;20792072;28;20588;-83
2021/08/07 17:58:25;;;;;;;2.40;0.68;;;16.70;99.90;;;;;;20794010;28;20605;-82
2021/08/07 18:08:26;;;;;;;0.98;0.30;;;16.90;99.90;;;;;;20782423;28;20619;-81
2021/08/07 18:18:27;;;;;;;0.50;0.30;;;16.90;99.90;;;;;;20797367;28;20717;-82
2021/08/07 18:28:28;;;;;;;0.88;0.57;;;16.90;99.90;;;;;;20796500;28;20672;-82
2021/08/07 18:38:31;;;;;;;0.75;0.15;;;16.80;99.90;;;;;;20795443;28;20586;-82
2021/08/07 18:48:34;;;;;;;0.40;0.17;;;16.80;99.90;;;;;;20818535;28;20136;-85
2021/08/07 18:58:35;;;;;;;0.38;0.20;;;16.70;99.90;;;;;;20806434;28;21792;-82
2021/08/07 19:08:37;;;;;;;0.50;0.13;;;16.50;99.90;;;;;;20782771;28;20959;-84
2021/08/07 19:18:39;;;;;;;0.80;0.20;;;16.40;99.90;;;;;;20784839;28;20048;-82
2021/08/07 19:28:41;;;;;;;1.30;0.30;;;16.30;99.90;;;;;;20796105;28;20270;-82
2021/08/07 19:38:42;;;;;;;1.20;0.30;;;16.20;99.90;;;;;;20790313;28;20688;-82
2021/08/07 19:48:43;;;;;;;1.55;0.60;;;16.10;99.90;;;;;;20794838;28;20068;-82
2021/08/07 19:58:44;;;;;;;1.52;0.40;;;15.90;99.90;;;;;;20813859;28;21962;-82
2021/08/07 20:08:45;;;;;;;6.35;0.75;;;15.90;99.90;;;;;;20825378;28;20434;-83
2021/08/07 20:18:47;;;;;;;3.90;0.95;;;15.90;99.90;;;;;;20785072;28;20091;-82
2021/08/07 20:28:48;;;;;;;1.70;0.70;;;16.20;99.90;;;;;;20753604;28;20422;-85
2021/08/07 20:38:49;;;;;;;2.42;0.93;;;16.10;99.90;;;;;;20829329;28;20073;-84
2021/08/07 20:48:51;;;;;;;2.30;0.63;;;16.20;99.90;;;;;;20817989;28;20049;-83
2021/08/07 20:58:53;;;;;;;1.55;0.40;;;16.10;99.90;;;;;;20823558;28;20021;-84
2021/08/07 21:08:54;;;;;;;2.13;0.52;;;16.20;99.90;;;;;;20797815;28;20248;-82
2021/08/07 21:18:55;;;;;;;2.33;0.68;;;16.20;99.90;;;;;;20771125;28;20041;-84
2021/08/07 21:28:56;;;;;;;1.13;0.40;;;16.30;99.90;;;;;;20782009;28;20045;-82
2021/08/07 21:38:57;;;;;;;2.28;0.60;;;16.20;99.90;;;;;;20781039;28;20053;-83
2021/08/07 21:48:59;;;;;;;1.00;0.30;;;16.20;99.90;;;;;;20767006;28;20060;-82
2021/08/07 21:59:00;;;;;;;0.80;0.10;;;16.20;99.90;;;;;;20837569;28;20120;-82
2021/08/07 22:09:02;;;;;;;3.05;0.30;;;16.00;99.90;;;;;;20818444;28;20041;-82
2021/08/07 22:19:03;;;;;;;0.68;0.22;;;16.10;99.90;;;;;;20779732;28;20049;-83
2021/08/07 22:29:04;;;;;;;1.00;0.45;;;16.10;99.90;;;;;;20768476;28;20055;-82
2021/08/07 22:39:05;;;;;;;4.97;0.63;;;16.00;99.90;;;;;;20813029;28;20053;-82
2021/08/07 22:49:07;;;;;;;1.65;0.60;;;15.90;99.90;;;;;;20738189;28;20050;-83
2021/08/07 22:59:08;;;;;;;2.42;0.88;;;15.90;99.90;;;;;;20729196;28;20045;-83
2021/08/07 23:09:09;;;;;;;1.30;0.57;;;15.80;99.90;;;;;;20762549;28;20095;-81
2021/08/07 23:19:10;;;;;;;2.75;1.15;;;16.00;99.90;;;;;;20745015;28;20041;-83
2021/08/07 23:29:11;;;;;;;5.65;1.75;;;15.90;99.90;;;;;;20810497;28;20473;-83
2021/08/07 23:39:13;;;;;;;2.70;1.33;;;16.00;99.90;;;;;;20724985;28;20046;-83
2021/08/07 23:49:16;;;;;;;4.93;1.63;;;16.00;99.90;;;;;;20756141;28;20050;-83
2021/08/07 23:59:17;;;;;;;3.15;1.77;;;16.10;99.90;;;;;;20742800;28;20180;-84
